Western Neb. Rgnl/William B. Heilig Airport
KBFF : now visible

Airfield :











YOU CAN JOIN US ON...

 
LOGIN :

Register | Disclaimer

   EN    FR    IT 

 









Legend :    VFR   Marginal VFR   IFR   Intensive IFR   Very Intensive IFR
Visi :
Ceiling :
>= 8 km
>= 3000ft
5 to 8 km
1000 to 3000 ft
1500m to 5 km
500 to 1000 ft
800 to 1500m
200 to 500 ft
< 800m
< 200 ft
Symbols :   Thunderstorms  Fog  Heavy snow  Heavy precipitations  Wind > 20 kt






- Airport Elevation : 3967 ft
- IATA code : BFF


KBFF - Western Neb. Rgnl/William B. Heilig

CURRENT METAR :
  • 071453Z AUTO 06004KT 10SM CLR 25/14 A2989 RMK AO2 SLP070 T02500139 53002

EXPIRED METARs :
  • 071353Z AUTO 08005KT 10SM CLR 21/16 A2989 RMK AO2 SLP071 T02110156
  • 071253Z AUTO 10004KT 9SM CLR 17/16 A2988 RMK AO2 SLP069 T01720156
  • 071153Z AUTO 06004KT 10SM CLR 16/14 A2989 RMK AO2 SLP072 T01560139 10217 20156 55003

TAF KBFF
Valid from the 07 at 12:00 until the 08 at 12:00 UTC


071123Z 0712/0812 09007KT P6SM SKC
FM071500 27009KT P6SM SKC
FM072000 32009KT P6SM SCT100
FM080100 03006KT P6SM SCT250
KZDV FIR / North America



MET'MAP, your aeronautical weather chart ! - Copyright ORBIFLY December 2007 - Disclaimer

ORBIFLY MET'MAP TEAM :

Programming & Development : Alexandra Zaïnal
Concept & original design : Baudouin d'Aumeries
Assistance for programming : Marc-Olivier Méhu
Technical & hardware support : Manuel Goepfert

Contact : metmap@orbifly.com




SOURCES & CREDITS :

   NOAA       Earth
Advisory